Terminal Aerodrome Forecast
Issued by NWS

Home | Current Version | Previous Version | Text Only | Print | Product List | Glossary On
Versions: 1 2 3 4 5 6 7 8 9 10 11 12 13 14 15 16 17 18 19 20
000
FTUS41 KGYX 281120
TAFAUG
TAF
KAUG 281120Z 2812/2912 36018G26KT P6SM BKN050
     FM290000 33013G18KT P6SM OVC100 PROB30 2900/2903 P6SM -RA
      OVC050
     FM290900 35008KT P6SM OVC050=

USA.gov is the U.S. government's official web portal to all federal, state and local government web resources and services.